sensor_id;sensor_type;location;lat;lon;timestamp;P1;durP1;ratioP1;P2;durP2;ratioP2
53108;SDS011;39007;53.090;6.074;2024-02-26T00:01:31;21.83;;;16.20;;
53108;SDS011;39007;53.090;6.074;2024-02-26T00:03:59;21.98;;;15.88;;
53108;SDS011;39007;53.090;6.074;2024-02-26T00:06:27;20.77;;;16.27;;
53108;SDS011;39007;53.090;6.074;2024-02-26T00:08:53;19.52;;;15.70;;
53108;SDS011;39007;53.090;6.074;2024-02-26T00:11:19;19.35;;;15.75;;
53108;SDS011;39007;53.090;6.074;2024-02-26T00:13:45;20.58;;;16.25;;
53108;SDS011;39007;53.090;6.074;2024-02-26T00:16:11;19.95;;;14.93;;
53108;SDS011;39007;53.090;6.074;2024-02-26T00:18:37;20.50;;;16.17;;
53108;SDS011;39007;53.090;6.074;2024-02-26T00:21:03;20.13;;;16.35;;
53108;SDS011;39007;53.090;6.074;2024-02-26T00:23:29;21.38;;;16.45;;
53108;SDS011;39007;53.090;6.074;2024-02-26T00:25:55;22.52;;;17.15;;
53108;SDS011;39007;53.090;6.074;2024-02-26T00:28:21;26.38;;;18.08;;
53108;SDS011;39007;53.090;6.074;2024-02-26T00:30:49;22.98;;;17.67;;
53108;SDS011;39007;53.090;6.074;2024-02-26T00:33:20;20.90;;;16.70;;
53108;SDS011;39007;53.090;6.074;2024-02-26T00:35:46;20.63;;;16.70;;
53108;SDS011;39007;53.090;6.074;2024-02-26T00:38:12;20.25;;;16.08;;
53108;SDS011;39007;53.090;6.074;2024-02-26T00:40:39;23.48;;;15.50;;
53108;SDS011;39007;53.090;6.074;2024-02-26T00:43:06;21.60;;;16.83;;
53108;SDS011;39007;53.090;6.074;2024-02-26T00:45:32;22.15;;;17.52;;
53108;SDS011;39007;53.090;6.074;2024-02-26T00:47:58;19.50;;;16.52;;
53108;SDS011;39007;53.090;6.074;2024-02-26T00:50:29;19.52;;;15.82;;
53108;SDS011;39007;53.090;6.074;2024-02-26T00:52:55;22.85;;;16.40;;
53108;SDS011;39007;53.090;6.074;2024-02-26T00:55:21;19.45;;;15.63;;
53108;SDS011;39007;53.090;6.074;2024-02-26T00:57:48;19.75;;;15.65;;
53108;SDS011;39007;53.090;6.074;2024-02-26T01:00:14;19.35;;;15.35;;
53108;SDS011;39007;53.090;6.074;2024-02-26T01:02:40;18.10;;;15.15;;
53108;SDS011;39007;53.090;6.074;2024-02-26T01:05:11;19.83;;;15.30;;
53108;SDS011;39007;53.090;6.074;2024-02-26T01:07:38;19.90;;;16.60;;
53108;SDS011;39007;53.090;6.074;2024-02-26T01:10:05;18.42;;;15.52;;
53108;SDS011;39007;53.090;6.074;2024-02-26T01:12:35;17.75;;;15.85;;
53108;SDS011;39007;53.090;6.074;2024-02-26T01:15:01;19.60;;;14.50;;
53108;SDS011;39007;53.090;6.074;2024-02-26T01:17:28;15.75;;;13.38;;
53108;SDS011;39007;53.090;6.074;2024-02-26T01:19:54;17.98;;;14.10;;
53108;SDS011;39007;53.090;6.074;2024-02-26T01:22:20;20.25;;;14.10;;
53108;SDS011;39007;53.090;6.074;2024-02-26T01:24:46;16.17;;;13.35;;
53108;SDS011;39007;53.090;6.074;2024-02-26T01:27:12;16.85;;;13.93;;
53108;SDS011;39007;53.090;6.074;2024-02-26T01:29:40;19.02;;;13.95;;
53108;SDS011;39007;53.090;6.074;2024-02-26T01:32:06;17.42;;;13.73;;
53108;SDS011;39007;53.090;6.074;2024-02-26T01:34:32;16.42;;;13.52;;
53108;SDS011;39007;53.090;6.074;2024-02-26T01:36:59;16.88;;;13.10;;
53108;SDS011;39007;53.090;6.074;2024-02-26T01:39:25;17.52;;;13.55;;
53108;SDS011;39007;53.090;6.074;2024-02-26T01:41:54;16.27;;;13.55;;
53108;SDS011;39007;53.090;6.074;2024-02-26T01:44:20;16.80;;;13.32;;
53108;SDS011;39007;53.090;6.074;2024-02-26T01:46:47;16.00;;;12.23;;
53108;SDS011;39007;53.090;6.074;2024-02-26T01:49:13;16.27;;;13.07;;
53108;SDS011;39007;53.090;6.074;2024-02-26T01:51:40;15.85;;;13.10;;
53108;SDS011;39007;53.090;6.074;2024-02-26T01:54:07;15.93;;;12.32;;
53108;SDS011;39007;53.090;6.074;2024-02-26T01:56:34;12.68;;;11.02;;
53108;SDS011;39007;53.090;6.074;2024-02-26T01:59:01;13.43;;;10.68;;
53108;SDS011;39007;53.090;6.074;2024-02-26T02:01:31;13.55;;;10.02;;
53108;SDS011;39007;53.090;6.074;2024-02-26T02:03:58;14.18;;;10.40;;
53108;SDS011;39007;53.090;6.074;2024-02-26T02:06:24;12.57;;;9.23;;
53108;SDS011;39007;53.090;6.074;2024-02-26T02:08:52;12.05;;;8.90;;
53108;SDS011;39007;53.090;6.074;2024-02-26T02:11:18;11.80;;;9.23;;
53108;SDS011;39007;53.090;6.074;2024-02-26T02:13:45;9.95;;;8.20;;
53108;SDS011;39007;53.090;6.074;2024-02-26T02:16:11;12.70;;;9.15;;
53108;SDS011;39007;53.090;6.074;2024-02-26T02:18:37;12.55;;;9.05;;
53108;SDS011;39007;53.090;6.074;2024-02-26T02:21:03;9.32;;;7.70;;
53108;SDS011;39007;53.090;6.074;2024-02-26T02:23:29;9.27;;;8.13;;
53108;SDS011;39007;53.090;6.074;2024-02-26T02:25:56;10.13;;;8.23;;
53108;SDS011;39007;53.090;6.074;2024-02-26T02:28:22;10.40;;;8.63;;
53108;SDS011;39007;53.090;6.074;2024-02-26T02:30:49;9.77;;;8.77;;
53108;SDS011;39007;53.090;6.074;2024-02-26T02:33:15;9.38;;;8.38;;
53108;SDS011;39007;53.090;6.074;2024-02-26T02:35:41;11.30;;;8.95;;
53108;SDS011;39007;53.090;6.074;2024-02-26T02:38:07;10.55;;;7.95;;
53108;SDS011;39007;53.090;6.074;2024-02-26T02:40:33;9.55;;;8.25;;
53108;SDS011;39007;53.090;6.074;2024-02-26T02:42:59;10.73;;;7.97;;
53108;SDS011;39007;53.090;6.074;2024-02-26T02:45:27;8.75;;;7.68;;
53108;SDS011;39007;53.090;6.074;2024-02-26T02:47:53;9.73;;;8.40;;
53108;SDS011;39007;53.090;6.074;2024-02-26T02:50:19;9.98;;;8.38;;
53108;SDS011;39007;53.090;6.074;2024-02-26T02:52:45;10.85;;;8.50;;
53108;SDS011;39007;53.090;6.074;2024-02-26T02:55:13;9.32;;;8.18;;
53108;SDS011;39007;53.090;6.074;2024-02-26T02:57:39;9.52;;;8.23;;
53108;SDS011;39007;53.090;6.074;2024-02-26T03:00:09;11.52;;;8.57;;
53108;SDS011;39007;53.090;6.074;2024-02-26T03:02:35;9.48;;;8.38;;
53108;SDS011;39007;53.090;6.074;2024-02-26T03:05:05;10.85;;;8.38;;
53108;SDS011;39007;53.090;6.074;2024-02-26T03:07:31;10.70;;;8.95;;
53108;SDS011;39007;53.090;6.074;2024-02-26T03:09:57;9.85;;;8.18;;
53108;SDS011;39007;53.090;6.074;2024-02-26T03:12:23;9.98;;;8.32;;
53108;SDS011;39007;53.090;6.074;2024-02-26T03:14:49;9.18;;;7.80;;
53108;SDS011;39007;53.090;6.074;2024-02-26T03:17:16;9.35;;;7.78;;
53108;SDS011;39007;53.090;6.074;2024-02-26T03:19:43;9.90;;;7.95;;
53108;SDS011;39007;53.090;6.074;2024-02-26T03:22:12;9.63;;;7.60;;
53108;SDS011;39007;53.090;6.074;2024-02-26T03:24:38;9.63;;;7.45;;
53108;SDS011;39007;53.090;6.074;2024-02-26T03:27:04;9.93;;;7.28;;
53108;SDS011;39007;53.090;6.074;2024-02-26T03:29:34;7.88;;;6.60;;
53108;SDS011;39007;53.090;6.074;2024-02-26T03:32:00;9.45;;;6.53;;
53108;SDS011;39007;53.090;6.074;2024-02-26T03:34:27;8.50;;;6.30;;
53108;SDS011;39007;53.090;6.074;2024-02-26T03:36:53;6.97;;;5.80;;
53108;SDS011;39007;53.090;6.074;2024-02-26T03:39:19;8.55;;;5.97;;
53108;SDS011;39007;53.090;6.074;2024-02-26T03:41:45;7.38;;;5.72;;
53108;SDS011;39007;53.090;6.074;2024-02-26T03:44:12;8.25;;;6.32;;
53108;SDS011;39007;53.090;6.074;2024-02-26T03:46:38;9.50;;;6.15;;
53108;SDS011;39007;53.090;6.074;2024-02-26T03:49:04;8.52;;;6.00;;
53108;SDS011;39007;53.090;6.074;2024-02-26T03:51:30;8.18;;;5.50;;
53108;SDS011;39007;53.090;6.074;2024-02-26T03:53:57;9.88;;;5.75;;
53108;SDS011;39007;53.090;6.074;2024-02-26T03:56:23;9.35;;;5.93;;
53108;SDS011;39007;53.090;6.074;2024-02-26T03:58:51;7.20;;;5.57;;
53108;SDS011;39007;53.090;6.074;2024-02-26T04:01:17;9.50;;;5.63;;
53108;SDS011;39007;53.090;6.074;2024-02-26T04:03:43;8.13;;;5.45;;
53108;SDS011;39007;53.090;6.074;2024-02-26T04:06:09;8.75;;;5.18;;
53108;SDS011;39007;53.090;6.074;2024-02-26T04:08:36;8.05;;;4.90;;
53108;SDS011;39007;53.090;6.074;2024-02-26T04:11:02;10.55;;;5.53;;
53108;SDS011;39007;53.090;6.074;2024-02-26T04:13:32;6.97;;;5.03;;
53108;SDS011;39007;53.090;6.074;2024-02-26T04:15:59;8.43;;;5.15;;
53108;SDS011;39007;53.090;6.074;2024-02-26T04:18:26;8.27;;;5.00;;
53108;SDS011;39007;53.090;6.074;2024-02-26T04:20:53;6.13;;;4.32;;
53108;SDS011;39007;53.090;6.074;2024-02-26T04:23:19;6.45;;;4.00;;
53108;SDS011;39007;53.090;6.074;2024-02-26T04:25:45;6.20;;;4.65;;
53108;SDS011;39007;53.090;6.074;2024-02-26T04:28:12;9.23;;;4.28;;
53108;SDS011;39007;53.090;6.074;2024-02-26T04:30:38;7.40;;;3.70;;
53108;SDS011;39007;53.090;6.074;2024-02-26T04:33:04;10.90;;;4.55;;
53108;SDS011;39007;53.090;6.074;2024-02-26T04:35:30;6.50;;;3.88;;
53108;SDS011;39007;53.090;6.074;2024-02-26T04:37:56;7.00;;;4.07;;
53108;SDS011;39007;53.090;6.074;2024-02-26T04:40:23;6.85;;;4.13;;
53108;SDS011;39007;53.090;6.074;2024-02-26T04:42:49;5.78;;;4.22;;
53108;SDS011;39007;53.090;6.074;2024-02-26T04:45:15;6.57;;;4.07;;
53108;SDS011;39007;53.090;6.074;2024-02-26T04:47:41;7.13;;;4.75;;
53108;SDS011;39007;53.090;6.074;2024-02-26T04:50:07;6.70;;;4.65;;
53108;SDS011;39007;53.090;6.074;2024-02-26T04:52:33;6.50;;;4.70;;
53108;SDS011;39007;53.090;6.074;2024-02-26T04:55:00;7.68;;;4.68;;
53108;SDS011;39007;53.090;6.074;2024-02-26T04:57:26;9.40;;;4.70;;
53108;SDS011;39007;53.090;6.074;2024-02-26T04:59:52;8.20;;;4.95;;
53108;SDS011;39007;53.090;6.074;2024-02-26T05:02:18;8.07;;;4.38;;
53108;SDS011;39007;53.090;6.074;2024-02-26T05:04:44;9.55;;;4.72;;
53108;SDS011;39007;53.090;6.074;2024-02-26T05:07:10;8.05;;;4.57;;
53108;SDS011;39007;53.090;6.074;2024-02-26T05:09:37;8.48;;;4.60;;
53108;SDS011;39007;53.090;6.074;2024-02-26T05:12:03;8.02;;;4.70;;
53108;SDS011;39007;53.090;6.074;2024-02-26T05:14:30;9.88;;;5.30;;
53108;SDS011;39007;53.090;6.074;2024-02-26T05:16:56;9.02;;;5.18;;
53108;SDS011;39007;53.090;6.074;2024-02-26T05:19:22;7.80;;;5.05;;
53108;SDS011;39007;53.090;6.074;2024-02-26T05:21:48;8.57;;;4.88;;
53108;SDS011;39007;53.090;6.074;2024-02-26T05:24:15;7.90;;;5.10;;
53108;SDS011;39007;53.090;6.074;2024-02-26T05:26:43;8.13;;;5.35;;
53108;SDS011;39007;53.090;6.074;2024-02-26T05:29:09;10.18;;;5.15;;
53108;SDS011;39007;53.090;6.074;2024-02-26T05:31:35;9.48;;;5.05;;
53108;SDS011;39007;53.090;6.074;2024-02-26T05:34:01;9.13;;;5.07;;
53108;SDS011;39007;53.090;6.074;2024-02-26T05:36:27;10.80;;;5.35;;
53108;SDS011;39007;53.090;6.074;2024-02-26T05:38:58;8.85;;;4.97;;
53108;SDS011;39007;53.090;6.074;2024-02-26T05:41:24;7.57;;;4.82;;
53108;SDS011;39007;53.090;6.074;2024-02-26T05:43:52;6.57;;;4.55;;
53108;SDS011;39007;53.090;6.074;2024-02-26T05:46:18;8.13;;;4.45;;
53108;SDS011;39007;53.090;6.074;2024-02-26T05:48:47;7.47;;;5.20;;
53108;SDS011;39007;53.090;6.074;2024-02-26T05:51:13;8.07;;;5.20;;
53108;SDS011;39007;53.090;6.074;2024-02-26T05:53:40;8.73;;;5.68;;
53108;SDS011;39007;53.090;6.074;2024-02-26T05:56:06;6.57;;;5.03;;
53108;SDS011;39007;53.090;6.074;2024-02-26T05:58:32;9.60;;;4.93;;
53108;SDS011;39007;53.090;6.074;2024-02-26T06:00:58;7.00;;;4.47;;
53108;SDS011;39007;53.090;6.074;2024-02-26T06:03:27;12.82;;;4.63;;
53108;SDS011;39007;53.090;6.074;2024-02-26T06:05:53;6.65;;;4.50;;
53108;SDS011;39007;53.090;6.074;2024-02-26T06:08:19;9.70;;;4.65;;
53108;SDS011;39007;53.090;6.074;2024-02-26T06:10:46;8.27;;;4.70;;
53108;SDS011;39007;53.090;6.074;2024-02-26T06:13:12;7.60;;;4.85;;
53108;SDS011;39007;53.090;6.074;2024-02-26T06:15:38;6.78;;;4.30;;
53108;SDS011;39007;53.090;6.074;2024-02-26T06:18:04;10.00;;;3.88;;
53108;SDS011;39007;53.090;6.074;2024-02-26T06:20:30;6.00;;;3.97;;
53108;SDS011;39007;53.090;6.074;2024-02-26T06:22:56;6.10;;;3.63;;
53108;SDS011;39007;53.090;6.074;2024-02-26T06:25:22;7.70;;;3.70;;
53108;SDS011;39007;53.090;6.074;2024-02-26T06:27:48;6.97;;;3.75;;
53108;SDS011;39007;53.090;6.074;2024-02-26T06:30:15;6.68;;;3.30;;
53108;SDS011;39007;53.090;6.074;2024-02-26T06:32:41;5.68;;;3.45;;
53108;SDS011;39007;53.090;6.074;2024-02-26T06:35:07;5.05;;;3.10;;
53108;SDS011;39007;53.090;6.074;2024-02-26T06:37:35;7.70;;;3.42;;
53108;SDS011;39007;53.090;6.074;2024-02-26T06:40:01;4.47;;;2.97;;
53108;SDS011;39007;53.090;6.074;2024-02-26T06:42:31;4.78;;;3.22;;
53108;SDS011;39007;53.090;6.074;2024-02-26T06:44:58;5.72;;;3.10;;
53108;SDS011;39007;53.090;6.074;2024-02-26T06:47:24;5.22;;;2.90;;
53108;SDS011;39007;53.090;6.074;2024-02-26T06:49:51;3.75;;;2.45;;
53108;SDS011;39007;53.090;6.074;2024-02-26T06:52:17;6.53;;;3.22;;
53108;SDS011;39007;53.090;6.074;2024-02-26T06:54:43;5.75;;;3.20;;
53108;SDS011;39007;53.090;6.074;2024-02-26T06:57:10;4.95;;;3.00;;
53108;SDS011;39007;53.090;6.074;2024-02-26T06:59:36;5.35;;;3.15;;
53108;SDS011;39007;53.090;6.074;2024-02-26T07:02:02;5.10;;;3.08;;
53108;SDS011;39007;53.090;6.074;2024-02-26T07:04:28;6.38;;;3.38;;
53108;SDS011;39007;53.090;6.074;2024-02-26T07:06:57;6.60;;;3.10;;
53108;SDS011;39007;53.090;6.074;2024-02-26T07:09:23;6.40;;;3.10;;
53108;SDS011;39007;53.090;6.074;2024-02-26T07:11:49;6.60;;;2.92;;
53108;SDS011;39007;53.090;6.074;2024-02-26T07:14:15;6.68;;;3.08;;
53108;SDS011;39007;53.090;6.074;2024-02-26T07:16:42;8.02;;;2.90;;
53108;SDS011;39007;53.090;6.074;2024-02-26T07:19:08;8.57;;;3.20;;
53108;SDS011;39007;53.090;6.074;2024-02-26T07:21:34;6.40;;;2.63;;
53108;SDS011;39007;53.090;6.074;2024-02-26T07:24:00;5.95;;;2.90;;
53108;SDS011;39007;53.090;6.074;2024-02-26T07:26:26;5.97;;;2.65;;
53108;SDS011;39007;53.090;6.074;2024-02-26T07:28:55;5.85;;;2.97;;
53108;SDS011;39007;53.090;6.074;2024-02-26T07:31:21;6.88;;;2.50;;
53108;SDS011;39007;53.090;6.074;2024-02-26T07:33:47;5.40;;;2.85;;
53108;SDS011;39007;53.090;6.074;2024-02-26T07:36:13;6.18;;;2.65;;
53108;SDS011;39007;53.090;6.074;2024-02-26T07:38:39;4.72;;;2.70;;
53108;SDS011;39007;53.090;6.074;2024-02-26T07:41:05;5.32;;;2.72;;
53108;SDS011;39007;53.090;6.074;2024-02-26T07:43:31;6.72;;;2.70;;
53108;SDS011;39007;53.090;6.074;2024-02-26T07:45:57;6.25;;;2.80;;
53108;SDS011;39007;53.090;6.074;2024-02-26T07:48:23;5.68;;;2.50;;
53108;SDS011;39007;53.090;6.074;2024-02-26T07:50:49;5.38;;;2.80;;
53108;SDS011;39007;53.090;6.074;2024-02-26T07:53:16;5.32;;;2.70;;
53108;SDS011;39007;53.090;6.074;2024-02-26T07:55:42;9.00;;;3.00;;
53108;SDS011;39007;53.090;6.074;2024-02-26T07:58:08;5.63;;;2.85;;
53108;SDS011;39007;53.090;6.074;2024-02-26T08:00:34;5.35;;;3.00;;
53108;SDS011;39007;53.090;6.074;2024-02-26T08:03:00;8.27;;;3.38;;
53108;SDS011;39007;53.090;6.074;2024-02-26T08:05:26;18.38;;;10.02;;
53108;SDS011;39007;53.090;6.074;2024-02-26T08:07:52;13.18;;;8.40;;
53108;SDS011;39007;53.090;6.074;2024-02-26T08:10:20;8.25;;;3.38;;
53108;SDS011;39007;53.090;6.074;2024-02-26T08:12:46;4.22;;;2.70;;
53108;SDS011;39007;53.090;6.074;2024-02-26T08:15:12;5.43;;;2.75;;
53108;SDS011;39007;53.090;6.074;2024-02-26T08:17:38;5.72;;;2.80;;
53108;SDS011;39007;53.090;6.074;2024-02-26T08:20:04;5.38;;;2.60;;
53108;SDS011;39007;53.090;6.074;2024-02-26T08:22:30;4.97;;;2.45;;
53108;SDS011;39007;53.090;6.074;2024-02-26T08:24:58;6.80;;;2.88;;
53108;SDS011;39007;53.090;6.074;2024-02-26T08:27:24;6.35;;;2.65;;
53108;SDS011;39007;53.090;6.074;2024-02-26T08:29:51;6.72;;;2.60;;
53108;SDS011;39007;53.090;6.074;2024-02-26T08:32:17;4.47;;;2.38;;
53108;SDS011;39007;53.090;6.074;2024-02-26T08:34:43;5.47;;;2.60;;
53108;SDS011;39007;53.090;6.074;2024-02-26T08:37:09;5.45;;;2.55;;
53108;SDS011;39007;53.090;6.074;2024-02-26T08:39:35;4.88;;;2.42;;
53108;SDS011;39007;53.090;6.074;2024-02-26T08:42:01;4.50;;;2.20;;
53108;SDS011;39007;53.090;6.074;2024-02-26T08:44:27;5.07;;;2.65;;
53108;SDS011;39007;53.090;6.074;2024-02-26T08:46:53;6.32;;;2.40;;
53108;SDS011;39007;53.090;6.074;2024-02-26T08:49:19;7.95;;;2.30;;
53108;SDS011;39007;53.090;6.074;2024-02-26T08:51:48;5.63;;;2.30;;
53108;SDS011;39007;53.090;6.074;2024-02-26T08:54:14;11.88;;;8.10;;
53108;SDS011;39007;53.090;6.074;2024-02-26T08:56:40;8.73;;;5.05;;
53108;SDS011;39007;53.090;6.074;2024-02-26T08:59:06;4.18;;;2.30;;
53108;SDS011;39007;53.090;6.074;2024-02-26T09:01:32;5.40;;;2.13;;
53108;SDS011;39007;53.090;6.074;2024-02-26T09:03:58;4.53;;;2.22;;
53108;SDS011;39007;53.090;6.074;2024-02-26T09:06:24;5.90;;;2.25;;
53108;SDS011;39007;53.090;6.074;2024-02-26T09:08:51;7.53;;;2.33;;
53108;SDS011;39007;53.090;6.074;2024-02-26T09:11:17;4.22;;;2.03;;
53108;SDS011;39007;53.090;6.074;2024-02-26T09:13:43;5.35;;;2.00;;
53108;SDS011;39007;53.090;6.074;2024-02-26T09:16:09;5.43;;;2.80;;
53108;SDS011;39007;53.090;6.074;2024-02-26T09:18:38;6.47;;;2.60;;
53108;SDS011;39007;53.090;6.074;2024-02-26T09:21:04;6.88;;;2.30;;
53108;SDS011;39007;53.090;6.074;2024-02-26T09:23:33;4.78;;;2.22;;
53108;SDS011;39007;53.090;6.074;2024-02-26T09:26:00;5.22;;;2.15;;
53108;SDS011;39007;53.090;6.074;2024-02-26T09:28:26;4.22;;;2.30;;
53108;SDS011;39007;53.090;6.074;2024-02-26T09:30:52;5.60;;;2.35;;
53108;SDS011;39007;53.090;6.074;2024-02-26T09:33:19;5.93;;;2.08;;
53108;SDS011;39007;53.090;6.074;2024-02-26T09:35:45;6.43;;;2.10;;
53108;SDS011;39007;53.090;6.074;2024-02-26T09:38:11;4.70;;;2.30;;
53108;SDS011;39007;53.090;6.074;2024-02-26T09:40:39;6.53;;;2.60;;
53108;SDS011;39007;53.090;6.074;2024-02-26T09:43:05;7.10;;;2.40;;
53108;SDS011;39007;53.090;6.074;2024-02-26T09:45:34;5.10;;;2.47;;
53108;SDS011;39007;53.090;6.074;2024-02-26T09:48:01;5.43;;;2.60;;
53108;SDS011;39007;53.090;6.074;2024-02-26T09:50:28;6.07;;;2.63;;
53108;SDS011;39007;53.090;6.074;2024-02-26T09:52:55;4.50;;;2.58;;
53108;SDS011;39007;53.090;6.074;2024-02-26T09:55:24;6.55;;;2.72;;
53108;SDS011;39007;53.090;6.074;2024-02-26T09:57:51;6.78;;;2.58;;
53108;SDS011;39007;53.090;6.074;2024-02-26T10:00:18;4.65;;;2.38;;
53108;SDS011;39007;53.090;6.074;2024-02-26T10:02:47;6.32;;;2.60;;
53108;SDS011;39007;53.090;6.074;2024-02-26T10:05:14;5.50;;;2.70;;
53108;SDS011;39007;53.090;6.074;2024-02-26T10:07:44;5.25;;;2.83;;
53108;SDS011;39007;53.090;6.074;2024-02-26T10:10:10;5.15;;;2.75;;
53108;SDS011;39007;53.090;6.074;2024-02-26T10:12:36;5.03;;;2.95;;
53108;SDS011;39007;53.090;6.074;2024-02-26T10:15:03;6.78;;;2.95;;
53108;SDS011;39007;53.090;6.074;2024-02-26T10:17:29;5.63;;;2.90;;
53108;SDS011;39007;53.090;6.074;2024-02-26T10:20:03;21.75;;;13.32;;
53108;SDS011;39007;53.090;6.074;2024-02-26T10:22:35;9.95;;;4.78;;
53108;SDS011;39007;53.090;6.074;2024-02-26T10:25:02;7.85;;;3.38;;
53108;SDS011;39007;53.090;6.074;2024-02-26T10:27:28;9.02;;;3.22;;
53108;SDS011;39007;53.090;6.074;2024-02-26T10:29:56;5.93;;;3.28;;
53108;SDS011;39007;53.090;6.074;2024-02-26T10:32:22;6.28;;;3.25;;
53108;SDS011;39007;53.090;6.074;2024-02-26T10:34:48;6.30;;;3.60;;
53108;SDS011;39007;53.090;6.074;2024-02-26T10:37:14;7.57;;;3.40;;
53108;SDS011;39007;53.090;6.074;2024-02-26T10:39:46;6.25;;;3.13;;
53108;SDS011;39007;53.090;6.074;2024-02-26T10:42:12;4.90;;;2.80;;
53108;SDS011;39007;53.090;6.074;2024-02-26T10:44:40;4.82;;;3.20;;
53108;SDS011;39007;53.090;6.074;2024-02-26T10:47:07;7.07;;;3.10;;
53108;SDS011;39007;53.090;6.074;2024-02-26T10:49:35;6.03;;;3.10;;
53108;SDS011;39007;53.090;6.074;2024-02-26T10:52:01;6.40;;;2.95;;
53108;SDS011;39007;53.090;6.074;2024-02-26T10:54:29;6.47;;;2.20;;
53108;SDS011;39007;53.090;6.074;2024-02-26T10:56:56;5.38;;;2.22;;
53108;SDS011;39007;53.090;6.074;2024-02-26T10:59:26;6.90;;;2.22;;
53108;SDS011;39007;53.090;6.074;2024-02-26T11:01:52;6.85;;;2.78;;
53108;SDS011;39007;53.090;6.074;2024-02-26T11:04:18;6.43;;;2.42;;
53108;SDS011;39007;53.090;6.074;2024-02-26T11:06:44;5.75;;;2.30;;
53108;SDS011;39007;53.090;6.074;2024-02-26T11:09:11;8.75;;;2.55;;
53108;SDS011;39007;53.090;6.074;2024-02-26T11:11:41;5.15;;;2.28;;
53108;SDS011;39007;53.090;6.074;2024-02-26T11:14:08;5.40;;;2.15;;
53108;SDS011;39007;53.090;6.074;2024-02-26T11:16:35;5.70;;;2.22;;
53108;SDS011;39007;53.090;6.074;2024-02-26T11:19:02;5.78;;;2.30;;
53108;SDS011;39007;53.090;6.074;2024-02-26T11:21:28;10.15;;;5.10;;
53108;SDS011;39007;53.090;6.074;2024-02-26T11:24:11;4.80;;;2.78;;
53108;SDS011;39007;53.090;6.074;2024-02-26T11:26:48;11.40;;;2.97;;
53108;SDS011;39007;53.090;6.074;2024-02-26T11:29:21;5.85;;;3.03;;
53108;SDS011;39007;53.090;6.074;2024-02-26T11:31:48;5.72;;;2.58;;
53108;SDS011;39007;53.090;6.074;2024-02-26T11:34:15;5.88;;;2.88;;
53108;SDS011;39007;53.090;6.074;2024-02-26T11:36:42;10.38;;;3.33;;
53108;SDS011;39007;53.090;6.074;2024-02-26T11:39:08;6.20;;;3.10;;
53108;SDS011;39007;53.090;6.074;2024-02-26T11:41:38;6.45;;;2.80;;
53108;SDS011;39007;53.090;6.074;2024-02-26T11:44:04;9.95;;;2.90;;
53108;SDS011;39007;53.090;6.074;2024-02-26T11:46:41;5.88;;;2.95;;
53108;SDS011;39007;53.090;6.074;2024-02-26T11:51:51;4.63;;;2.83;;
53108;SDS011;39007;53.090;6.074;2024-02-26T11:57:02;7.78;;;3.55;;
53108;SDS011;39007;53.090;6.074;2024-02-26T11:59:38;7.03;;;3.33;;
53108;SDS011;39007;53.090;6.074;2024-02-26T12:02:04;8.90;;;4.15;;
53108;SDS011;39007;53.090;6.074;2024-02-26T12:04:30;6.55;;;3.60;;
53108;SDS011;39007;53.090;6.074;2024-02-26T12:06:57;8.75;;;3.40;;
53108;SDS011;39007;53.090;6.074;2024-02-26T12:09:31;6.55;;;3.42;;
53108;SDS011;39007;53.090;6.074;2024-02-26T12:11:57;7.13;;;3.55;;
53108;SDS011;39007;53.090;6.074;2024-02-26T12:14:26;5.50;;;3.17;;
53108;SDS011;39007;53.090;6.074;2024-02-26T12:16:52;7.32;;;3.35;;
53108;SDS011;39007;53.090;6.074;2024-02-26T12:19:18;8.38;;;3.80;;
53108;SDS011;39007;53.090;6.074;2024-02-26T12:21:45;6.97;;;3.60;;
53108;SDS011;39007;53.090;6.074;2024-02-26T12:24:16;8.52;;;3.80;;
53108;SDS011;39007;53.090;6.074;2024-02-26T12:26:45;6.45;;;3.60;;
53108;SDS011;39007;53.090;6.074;2024-02-26T12:29:11;8.63;;;4.18;;
53108;SDS011;39007;53.090;6.074;2024-02-26T12:31:37;8.00;;;3.85;;
53108;SDS011;39007;53.090;6.074;2024-02-26T12:34:04;9.25;;;4.55;;
53108;SDS011;39007;53.090;6.074;2024-02-26T12:36:30;7.57;;;3.60;;
53108;SDS011;39007;53.090;6.074;2024-02-26T12:38:56;6.85;;;3.97;;
53108;SDS011;39007;53.090;6.074;2024-02-26T12:41:22;8.35;;;4.13;;
53108;SDS011;39007;53.090;6.074;2024-02-26T12:43:49;8.55;;;3.92;;
53108;SDS011;39007;53.090;6.074;2024-02-26T12:46:15;10.68;;;5.10;;
53108;SDS011;39007;53.090;6.074;2024-02-26T12:48:44;7.63;;;4.40;;
53108;SDS011;39007;53.090;6.074;2024-02-26T12:51:11;10.32;;;4.15;;
53108;SDS011;39007;53.090;6.074;2024-02-26T12:53:38;8.68;;;4.35;;
53108;SDS011;39007;53.090;6.074;2024-02-26T12:56:05;8.50;;;5.10;;
53108;SDS011;39007;53.090;6.074;2024-02-26T12:58:32;6.28;;;4.18;;
53108;SDS011;39007;53.090;6.074;2024-02-26T13:00:59;8.38;;;4.53;;
53108;SDS011;39007;53.090;6.074;2024-02-26T13:03:25;14.00;;;7.32;;
53108;SDS011;39007;53.090;6.074;2024-02-26T13:05:52;7.90;;;4.72;;
53108;SDS011;39007;53.090;6.074;2024-02-26T13:08:21;8.73;;;5.28;;
53108;SDS011;39007;53.090;6.074;2024-02-26T13:10:47;10.90;;;5.63;;
53108;SDS011;39007;53.090;6.074;2024-02-26T13:13:20;8.13;;;4.80;;
53108;SDS011;39007;53.090;6.074;2024-02-26T13:15:46;9.23;;;4.75;;
53108;SDS011;39007;53.090;6.074;2024-02-26T13:18:15;7.65;;;4.70;;
53108;SDS011;39007;53.090;6.074;2024-02-26T13:20:41;7.13;;;4.15;;
53108;SDS011;39007;53.090;6.074;2024-02-26T13:23:10;9.30;;;4.50;;
53108;SDS011;39007;53.090;6.074;2024-02-26T13:25:36;11.88;;;5.38;;
53108;SDS011;39007;53.090;6.074;2024-02-26T13:28:07;10.55;;;5.70;;
53108;SDS011;39007;53.090;6.074;2024-02-26T13:30:34;10.32;;;5.65;;
53108;SDS011;39007;53.090;6.074;2024-02-26T13:33:10;13.13;;;7.45;;
53108;SDS011;39007;53.090;6.074;2024-02-26T13:35:37;10.35;;;6.03;;
53108;SDS011;39007;53.090;6.074;2024-02-26T13:38:04;8.57;;;4.60;;
53108;SDS011;39007;53.090;6.074;2024-02-26T13:40:31;7.22;;;4.28;;
53108;SDS011;39007;53.090;6.074;2024-02-26T13:42:57;8.70;;;4.68;;
53108;SDS011;39007;53.090;6.074;2024-02-26T13:45:23;10.15;;;4.85;;
53108;SDS011;39007;53.090;6.074;2024-02-26T13:47:49;10.35;;;4.40;;
53108;SDS011;39007;53.090;6.074;2024-02-26T13:50:15;7.30;;;4.07;;
53108;SDS011;39007;53.090;6.074;2024-02-26T13:52:46;7.72;;;3.60;;
53108;SDS011;39007;53.090;6.074;2024-02-26T13:55:12;7.28;;;3.85;;
53108;SDS011;39007;53.090;6.074;2024-02-26T13:57:39;7.93;;;4.43;;
53108;SDS011;39007;53.090;6.074;2024-02-26T14:00:07;8.57;;;5.13;;
53108;SDS011;39007;53.090;6.074;2024-02-26T14:02:35;11.23;;;4.70;;
53108;SDS011;39007;53.090;6.074;2024-02-26T14:05:01;10.73;;;4.82;;
53108;SDS011;39007;53.090;6.074;2024-02-26T14:07:30;9.75;;;4.45;;
53108;SDS011;39007;53.090;6.074;2024-02-26T14:09:57;14.15;;;4.60;;
53108;SDS011;39007;53.090;6.074;2024-02-26T14:12:23;9.38;;;4.32;;
53108;SDS011;39007;53.090;6.074;2024-02-26T14:14:50;7.22;;;4.10;;
53108;SDS011;39007;53.090;6.074;2024-02-26T14:17:18;9.57;;;4.13;;
53108;SDS011;39007;53.090;6.074;2024-02-26T14:19:44;8.43;;;3.83;;
53108;SDS011;39007;53.090;6.074;2024-02-26T14:22:12;7.88;;;3.50;;
53108;SDS011;39007;53.090;6.074;2024-02-26T14:24:38;254.57;;;133.73;;
53108;SDS011;39007;53.090;6.074;2024-02-26T14:27:05;184.95;;;88.75;;
53108;SDS011;39007;53.090;6.074;2024-02-26T14:29:31;52.75;;;26.48;;
53108;SDS011;39007;53.090;6.074;2024-02-26T14:31:58;16.25;;;8.23;;
53108;SDS011;39007;53.090;6.074;2024-02-26T14:34:24;9.70;;;5.35;;
53108;SDS011;39007;53.090;6.074;2024-02-26T14:36:50;8.77;;;3.95;;
53108;SDS011;39007;53.090;6.074;2024-02-26T14:39:16;8.00;;;3.83;;
53108;SDS011;39007;53.090;6.074;2024-02-26T14:41:42;6.50;;;3.45;;
53108;SDS011;39007;53.090;6.074;2024-02-26T14:44:08;10.38;;;3.88;;
53108;SDS011;39007;53.090;6.074;2024-02-26T14:46:35;6.40;;;3.40;;